sensor_id;sensor_type;location;lat;lon;timestamp;temperature;humidity
25092;DHT22;13082;52.374;4.946;2023-03-31T00:01:07;11.40;99.90
25092;DHT22;13082;52.374;4.946;2023-03-31T00:03:33;11.30;99.90
25092;DHT22;13082;52.374;4.946;2023-03-31T00:06:03;11.30;99.90
25092;DHT22;13082;52.374;4.946;2023-03-31T00:08:31;11.30;99.90
25092;DHT22;13082;52.374;4.946;2023-03-31T00:11:01;11.30;99.90
25092;DHT22;13082;52.374;4.946;2023-03-31T00:13:28;11.30;99.90
25092;DHT22;13082;52.374;4.946;2023-03-31T00:16:02;11.30;99.90
25092;DHT22;13082;52.374;4.946;2023-03-31T00:18:28;11.30;99.90
25092;DHT22;13082;52.374;4.946;2023-03-31T00:20:54;11.30;99.90
25092;DHT22;13082;52.374;4.946;2023-03-31T00:23:23;11.30;99.90
25092;DHT22;13082;52.374;4.946;2023-03-31T00:25:53;11.30;99.90
25092;DHT22;13082;52.374;4.946;2023-03-31T00:28:19;11.30;99.90
25092;DHT22;13082;52.374;4.946;2023-03-31T00:30:44;11.30;99.90
25092;DHT22;13082;52.374;4.946;2023-03-31T00:33:12;11.30;99.90
25092;DHT22;13082;52.374;4.946;2023-03-31T00:35:38;11.30;99.90
25092;DHT22;13082;52.374;4.946;2023-03-31T00:38:04;11.20;99.90
25092;DHT22;13082;52.374;4.946;2023-03-31T00:40:34;11.30;99.90
25092;DHT22;13082;52.374;4.946;2023-03-31T00:42:59;11.30;99.90
25092;DHT22;13082;52.374;4.946;2023-03-31T00:45:28;11.30;99.90
25092;DHT22;13082;52.374;4.946;2023-03-31T00:48:00;11.30;99.90
25092;DHT22;13082;52.374;4.946;2023-03-31T00:50:31;11.30;99.90
25092;DHT22;13082;52.374;4.946;2023-03-31T00:53:02;11.30;99.90
25092;DHT22;13082;52.374;4.946;2023-03-31T00:55:35;11.30;99.90
25092;DHT22;13082;52.374;4.946;2023-03-31T00:58:02;11.30;99.90
25092;DHT22;13082;52.374;4.946;2023-03-31T01:00:30;11.30;99.90
25092;DHT22;13082;52.374;4.946;2023-03-31T01:02:59;11.30;99.90
25092;DHT22;13082;52.374;4.946;2023-03-31T01:05:51;11.30;99.90
25092;DHT22;13082;52.374;4.946;2023-03-31T01:08:19;11.30;99.90
25092;DHT22;13082;52.374;4.946;2023-03-31T01:10:52;11.30;99.90
25092;DHT22;13082;52.374;4.946;2023-03-31T01:13:19;11.30;99.90
25092;DHT22;13082;52.374;4.946;2023-03-31T01:15:46;11.30;99.90
25092;DHT22;13082;52.374;4.946;2023-03-31T01:18:13;11.30;99.90
25092;DHT22;13082;52.374;4.946;2023-03-31T01:20:49;11.30;99.90
25092;DHT22;13082;52.374;4.946;2023-03-31T01:26:30;11.30;99.90
25092;DHT22;13082;52.374;4.946;2023-03-31T01:42:54;11.40;99.90
25092;DHT22;13082;52.374;4.946;2023-03-31T01:45:25;11.40;99.90
25092;DHT22;13082;52.374;4.946;2023-03-31T01:47:58;11.40;99.90
25092;DHT22;13082;52.374;4.946;2023-03-31T01:50:35;11.40;99.90
25092;DHT22;13082;52.374;4.946;2023-03-31T01:53:25;11.40;99.90
25092;DHT22;13082;52.374;4.946;2023-03-31T01:58:37;11.40;99.90
25092;DHT22;13082;52.374;4.946;2023-03-31T02:01:13;11.40;99.90
25092;DHT22;13082;52.374;4.946;2023-03-31T02:03:54;11.50;99.90
25092;DHT22;13082;52.374;4.946;2023-03-31T02:06:25;11.40;99.90
25092;DHT22;13082;52.374;4.946;2023-03-31T02:08:59;11.40;99.90
25092;DHT22;13082;52.374;4.946;2023-03-31T02:11:28;11.40;99.90
25092;DHT22;13082;52.374;4.946;2023-03-31T02:13:55;11.40;99.90
25092;DHT22;13082;52.374;4.946;2023-03-31T02:16:24;11.40;99.90
25092;DHT22;13082;52.374;4.946;2023-03-31T02:18:53;11.40;99.90
25092;DHT22;13082;52.374;4.946;2023-03-31T02:21:29;11.40;99.90
25092;DHT22;13082;52.374;4.946;2023-03-31T02:23:58;11.40;99.90
25092;DHT22;13082;52.374;4.946;2023-03-31T02:26:28;11.40;99.90
25092;DHT22;13082;52.374;4.946;2023-03-31T02:28:55;11.40;99.90
25092;DHT22;13082;52.374;4.946;2023-03-31T02:33:47;11.40;99.90
25092;DHT22;13082;52.374;4.946;2023-03-31T02:36:13;11.40;99.90
25092;DHT22;13082;52.374;4.946;2023-03-31T02:38:48;11.40;99.90
25092;DHT22;13082;52.374;4.946;2023-03-31T02:41:14;11.40;99.90
25092;DHT22;13082;52.374;4.946;2023-03-31T02:43:40;11.50;99.90
25092;DHT22;13082;52.374;4.946;2023-03-31T02:46:06;11.40;99.90
25092;DHT22;13082;52.374;4.946;2023-03-31T02:48:35;11.40;99.90
25092;DHT22;13082;52.374;4.946;2023-03-31T02:51:13;11.40;99.90
25092;DHT22;13082;52.374;4.946;2023-03-31T02:53:56;11.30;99.90
25092;DHT22;13082;52.374;4.946;2023-03-31T02:56:43;11.30;99.90
25092;DHT22;13082;52.374;4.946;2023-03-31T03:08:04;11.30;99.90
25092;DHT22;13082;52.374;4.946;2023-03-31T03:10:35;11.30;99.90
25092;DHT22;13082;52.374;4.946;2023-03-31T03:15:46;11.30;99.90
25092;DHT22;13082;52.374;4.946;2023-03-31T03:18:14;11.30;99.90
25092;DHT22;13082;52.374;4.946;2023-03-31T03:20:43;11.20;99.90
25092;DHT22;13082;52.374;4.946;2023-03-31T03:23:15;11.20;99.90
25092;DHT22;13082;52.374;4.946;2023-03-31T03:25:41;11.20;99.90
25092;DHT22;13082;52.374;4.946;2023-03-31T03:28:06;11.20;99.90
25092;DHT22;13082;52.374;4.946;2023-03-31T03:30:32;11.20;99.90
25092;DHT22;13082;52.374;4.946;2023-03-31T03:32:58;11.20;99.90
25092;DHT22;13082;52.374;4.946;2023-03-31T03:35:24;11.20;99.90
25092;DHT22;13082;52.374;4.946;2023-03-31T03:37:50;11.20;99.90
25092;DHT22;13082;52.374;4.946;2023-03-31T03:40:15;11.20;99.90
25092;DHT22;13082;52.374;4.946;2023-03-31T03:42:41;11.20;99.90
25092;DHT22;13082;52.374;4.946;2023-03-31T03:45:07;11.20;99.90
25092;DHT22;13082;52.374;4.946;2023-03-31T03:47:33;11.10;99.90
25092;DHT22;13082;52.374;4.946;2023-03-31T03:50:01;11.20;99.90
25092;DHT22;13082;52.374;4.946;2023-03-31T03:52:27;11.10;99.90
25092;DHT22;13082;52.374;4.946;2023-03-31T03:54:52;11.10;99.90
25092;DHT22;13082;52.374;4.946;2023-03-31T03:57:18;11.10;99.90
25092;DHT22;13082;52.374;4.946;2023-03-31T03:59:44;11.10;99.90
25092;DHT22;13082;52.374;4.946;2023-03-31T04:02:09;11.10;99.90
25092;DHT22;13082;52.374;4.946;2023-03-31T04:04:35;11.10;99.90
25092;DHT22;13082;52.374;4.946;2023-03-31T04:07:01;11.10;99.90
25092;DHT22;13082;52.374;4.946;2023-03-31T04:09:26;11.10;99.90
25092;DHT22;13082;52.374;4.946;2023-03-31T04:11:53;11.10;99.90
25092;DHT22;13082;52.374;4.946;2023-03-31T04:14:18;11.00;99.90
25092;DHT22;13082;52.374;4.946;2023-03-31T04:16:44;11.00;99.90
25092;DHT22;13082;52.374;4.946;2023-03-31T04:19:14;11.00;99.90
25092;DHT22;13082;52.374;4.946;2023-03-31T04:21:42;11.00;99.90
25092;DHT22;13082;52.374;4.946;2023-03-31T04:24:10;10.90;99.90
25092;DHT22;13082;52.374;4.946;2023-03-31T04:26:37;10.90;99.90
25092;DHT22;13082;52.374;4.946;2023-03-31T04:29:13;10.90;99.90
25092;DHT22;13082;52.374;4.946;2023-03-31T04:31:40;10.90;99.90
25092;DHT22;13082;52.374;4.946;2023-03-31T04:34:08;10.80;99.90
25092;DHT22;13082;52.374;4.946;2023-03-31T04:36:45;10.80;99.90
25092;DHT22;13082;52.374;4.946;2023-03-31T04:39:18;10.70;99.90
25092;DHT22;13082;52.374;4.946;2023-03-31T04:41:55;10.70;99.90
25092;DHT22;13082;52.374;4.946;2023-03-31T04:44:21;10.60;99.90
25092;DHT22;13082;52.374;4.946;2023-03-31T04:46:46;10.60;99.90
25092;DHT22;13082;52.374;4.946;2023-03-31T04:49:12;10.70;99.90
25092;DHT22;13082;52.374;4.946;2023-03-31T04:51:38;10.70;99.90
25092;DHT22;13082;52.374;4.946;2023-03-31T04:54:03;10.70;99.90
25092;DHT22;13082;52.374;4.946;2023-03-31T04:56:29;10.70;99.90
25092;DHT22;13082;52.374;4.946;2023-03-31T04:58:55;10.70;99.90
25092;DHT22;13082;52.374;4.946;2023-03-31T05:01:20;10.70;99.90
25092;DHT22;13082;52.374;4.946;2023-03-31T05:03:47;10.70;99.90
25092;DHT22;13082;52.374;4.946;2023-03-31T05:06:13;10.80;99.90
25092;DHT22;13082;52.374;4.946;2023-03-31T05:08:39;10.80;99.90
25092;DHT22;13082;52.374;4.946;2023-03-31T05:11:05;10.80;99.90
25092;DHT22;13082;52.374;4.946;2023-03-31T05:13:31;10.80;99.90
25092;DHT22;13082;52.374;4.946;2023-03-31T05:15:56;10.80;99.90
25092;DHT22;13082;52.374;4.946;2023-03-31T05:18:22;10.80;99.90
25092;DHT22;13082;52.374;4.946;2023-03-31T05:20:48;10.90;99.90
25092;DHT22;13082;52.374;4.946;2023-03-31T05:23:13;10.90;99.90
25092;DHT22;13082;52.374;4.946;2023-03-31T05:25:39;10.90;99.90
25092;DHT22;13082;52.374;4.946;2023-03-31T05:28:07;10.80;99.90
25092;DHT22;13082;52.374;4.946;2023-03-31T05:30:34;10.90;99.90
25092;DHT22;13082;52.374;4.946;2023-03-31T05:32:59;10.90;99.90
25092;DHT22;13082;52.374;4.946;2023-03-31T05:35:25;10.90;99.90
25092;DHT22;13082;52.374;4.946;2023-03-31T05:37:51;10.90;99.90
25092;DHT22;13082;52.374;4.946;2023-03-31T05:40:16;10.90;99.90
25092;DHT22;13082;52.374;4.946;2023-03-31T05:42:42;10.90;99.90
25092;DHT22;13082;52.374;4.946;2023-03-31T05:45:08;11.00;99.90
25092;DHT22;13082;52.374;4.946;2023-03-31T05:47:34;11.00;99.90
25092;DHT22;13082;52.374;4.946;2023-03-31T05:49:59;11.00;99.90
25092;DHT22;13082;52.374;4.946;2023-03-31T05:52:25;10.90;99.90
25092;DHT22;13082;52.374;4.946;2023-03-31T05:54:51;10.90;99.90
25092;DHT22;13082;52.374;4.946;2023-03-31T05:57:16;10.90;99.90
25092;DHT22;13082;52.374;4.946;2023-03-31T05:59:42;10.90;99.90
25092;DHT22;13082;52.374;4.946;2023-03-31T06:02:11;10.90;99.90
25092;DHT22;13082;52.374;4.946;2023-03-31T06:04:37;10.80;99.90
25092;DHT22;13082;52.374;4.946;2023-03-31T06:07:04;10.90;99.90
25092;DHT22;13082;52.374;4.946;2023-03-31T06:09:29;10.80;99.90
25092;DHT22;13082;52.374;4.946;2023-03-31T06:11:55;10.80;99.90
25092;DHT22;13082;52.374;4.946;2023-03-31T06:14:21;10.80;99.90
25092;DHT22;13082;52.374;4.946;2023-03-31T06:16:47;10.80;99.90
25092;DHT22;13082;52.374;4.946;2023-03-31T06:19:12;10.70;99.90
25092;DHT22;13082;52.374;4.946;2023-03-31T06:21:38;10.80;99.90
25092;DHT22;13082;52.374;4.946;2023-03-31T06:24:03;10.80;99.90
25092;DHT22;13082;52.374;4.946;2023-03-31T06:26:29;10.70;99.90
25092;DHT22;13082;52.374;4.946;2023-03-31T06:28:55;10.80;99.90
25092;DHT22;13082;52.374;4.946;2023-03-31T06:31:23;10.80;99.90
25092;DHT22;13082;52.374;4.946;2023-03-31T06:33:49;10.70;99.90
25092;DHT22;13082;52.374;4.946;2023-03-31T06:36:17;10.70;99.90
25092;DHT22;13082;52.374;4.946;2023-03-31T06:38:43;10.70;99.90
25092;DHT22;13082;52.374;4.946;2023-03-31T06:41:11;10.70;99.90
25092;DHT22;13082;52.374;4.946;2023-03-31T06:43:37;10.70;99.90
25092;DHT22;13082;52.374;4.946;2023-03-31T06:46:03;10.70;99.90
25092;DHT22;13082;52.374;4.946;2023-03-31T06:48:29;10.70;99.90
25092;DHT22;13082;52.374;4.946;2023-03-31T06:50:59;10.70;99.90
25092;DHT22;13082;52.374;4.946;2023-03-31T06:53:26;10.70;99.90
25092;DHT22;13082;52.374;4.946;2023-03-31T06:55:51;10.70;99.90
25092;DHT22;13082;52.374;4.946;2023-03-31T06:58:17;10.70;99.90
25092;DHT22;13082;52.374;4.946;2023-03-31T07:00:43;10.70;99.90
25092;DHT22;13082;52.374;4.946;2023-03-31T07:03:11;10.70;99.90
25092;DHT22;13082;52.374;4.946;2023-03-31T07:05:37;10.70;99.90
25092;DHT22;13082;52.374;4.946;2023-03-31T07:08:03;10.70;99.90
25092;DHT22;13082;52.374;4.946;2023-03-31T07:10:30;10.70;99.90
25092;DHT22;13082;52.374;4.946;2023-03-31T07:12:57;10.70;99.90
25092;DHT22;13082;52.374;4.946;2023-03-31T07:15:23;10.70;99.90
25092;DHT22;13082;52.374;4.946;2023-03-31T07:17:49;10.60;99.90
25092;DHT22;13082;52.374;4.946;2023-03-31T07:20:18;10.70;99.90
25092;DHT22;13082;52.374;4.946;2023-03-31T07:22:45;10.70;99.90
25092;DHT22;13082;52.374;4.946;2023-03-31T07:25:14;10.70;99.90
25092;DHT22;13082;52.374;4.946;2023-03-31T07:27:40;10.70;99.90
25092;DHT22;13082;52.374;4.946;2023-03-31T07:30:13;10.70;99.90
25092;DHT22;13082;52.374;4.946;2023-03-31T07:32:40;10.70;99.90
25092;DHT22;13082;52.374;4.946;2023-03-31T07:35:07;10.70;99.90
25092;DHT22;13082;52.374;4.946;2023-03-31T07:37:42;10.60;99.90
25092;DHT22;13082;52.374;4.946;2023-03-31T07:40:20;10.60;99.90
25092;DHT22;13082;52.374;4.946;2023-03-31T07:42:46;10.60;99.90
25092;DHT22;13082;52.374;4.946;2023-03-31T07:45:13;10.60;99.90
25092;DHT22;13082;52.374;4.946;2023-03-31T07:47:39;10.70;99.90
25092;DHT22;13082;52.374;4.946;2023-03-31T07:50:06;10.70;99.90
25092;DHT22;13082;52.374;4.946;2023-03-31T07:52:32;10.70;99.90
25092;DHT22;13082;52.374;4.946;2023-03-31T07:54:58;10.70;99.90
25092;DHT22;13082;52.374;4.946;2023-03-31T07:57:24;10.70;99.90
25092;DHT22;13082;52.374;4.946;2023-03-31T07:59:50;10.70;99.90
25092;DHT22;13082;52.374;4.946;2023-03-31T08:02:16;10.70;99.90
25092;DHT22;13082;52.374;4.946;2023-03-31T08:04:43;10.70;99.90
25092;DHT22;13082;52.374;4.946;2023-03-31T08:07:10;10.70;99.90
25092;DHT22;13082;52.374;4.946;2023-03-31T08:09:36;10.80;99.90
25092;DHT22;13082;52.374;4.946;2023-03-31T08:12:03;10.80;99.90
25092;DHT22;13082;52.374;4.946;2023-03-31T08:14:29;10.80;99.90
25092;DHT22;13082;52.374;4.946;2023-03-31T08:16:54;10.80;99.90
25092;DHT22;13082;52.374;4.946;2023-03-31T08:19:22;10.90;99.90
25092;DHT22;13082;52.374;4.946;2023-03-31T08:21:48;11.00;99.90
25092;DHT22;13082;52.374;4.946;2023-03-31T08:24:14;11.00;99.90
25092;DHT22;13082;52.374;4.946;2023-03-31T08:26:40;11.00;99.90
25092;DHT22;13082;52.374;4.946;2023-03-31T08:29:06;11.10;99.90
25092;DHT22;13082;52.374;4.946;2023-03-31T08:31:32;11.10;99.90
25092;DHT22;13082;52.374;4.946;2023-03-31T08:33:57;11.20;99.90
25092;DHT22;13082;52.374;4.946;2023-03-31T08:36:24;11.20;99.90
25092;DHT22;13082;52.374;4.946;2023-03-31T08:38:49;11.20;99.90
25092;DHT22;13082;52.374;4.946;2023-03-31T08:43:58;11.30;99.90
25092;DHT22;13082;52.374;4.946;2023-03-31T08:46:28;11.30;99.90
25092;DHT22;13082;52.374;4.946;2023-03-31T08:48:56;11.40;99.90
25092;DHT22;13082;52.374;4.946;2023-03-31T08:51:42;11.40;99.90
25092;DHT22;13082;52.374;4.946;2023-03-31T08:56:41;11.40;99.90
25092;DHT22;13082;52.374;4.946;2023-03-31T08:59:32;11.50;99.90
25092;DHT22;13082;52.374;4.946;2023-03-31T09:10:40;11.70;99.90
25092;DHT22;13082;52.374;4.946;2023-03-31T09:13:45;11.60;99.90
25092;DHT22;13082;52.374;4.946;2023-03-31T09:16:15;11.70;99.90
25092;DHT22;13082;52.374;4.946;2023-03-31T09:18:42;11.70;99.90
25092;DHT22;13082;52.374;4.946;2023-03-31T09:24:06;11.60;99.90
25092;DHT22;13082;52.374;4.946;2023-03-31T09:26:36;11.60;99.90
25092;DHT22;13082;52.374;4.946;2023-03-31T09:29:09;11.60;99.90
25092;DHT22;13082;52.374;4.946;2023-03-31T09:31:37;11.60;99.90
25092;DHT22;13082;52.374;4.946;2023-03-31T09:34:14;11.50;99.90
25092;DHT22;13082;52.374;4.946;2023-03-31T09:39:29;11.50;99.90
25092;DHT22;13082;52.374;4.946;2023-03-31T09:41:55;11.60;99.90
25092;DHT22;13082;52.374;4.946;2023-03-31T09:44:45;11.60;99.90
25092;DHT22;13082;52.374;4.946;2023-03-31T09:47:17;11.60;99.90
25092;DHT22;13082;52.374;4.946;2023-03-31T09:49:45;11.60;99.90
25092;DHT22;13082;52.374;4.946;2023-03-31T09:54:45;11.70;99.90
25092;DHT22;13082;52.374;4.946;2023-03-31T09:57:25;11.90;99.90
25092;DHT22;13082;52.374;4.946;2023-03-31T09:59:51;12.10;99.90
25092;DHT22;13082;52.374;4.946;2023-03-31T10:02:36;12.10;99.90
25092;DHT22;13082;52.374;4.946;2023-03-31T10:05:06;12.20;99.90
25092;DHT22;13082;52.374;4.946;2023-03-31T10:07:42;12.20;99.90
25092;DHT22;13082;52.374;4.946;2023-03-31T10:10:10;12.20;99.90
25092;DHT22;13082;52.374;4.946;2023-03-31T10:12:50;12.20;99.90
25092;DHT22;13082;52.374;4.946;2023-03-31T10:15:22;12.20;99.90
25092;DHT22;13082;52.374;4.946;2023-03-31T10:17:50;12.10;99.90
25092;DHT22;13082;52.374;4.946;2023-03-31T10:23:02;12.10;99.90
25092;DHT22;13082;52.374;4.946;2023-03-31T10:25:28;12.00;99.90
25092;DHT22;13082;52.374;4.946;2023-03-31T10:27:55;11.90;99.90
25092;DHT22;13082;52.374;4.946;2023-03-31T10:30:25;11.80;99.90
25092;DHT22;13082;52.374;4.946;2023-03-31T10:32:53;11.80;99.90
25092;DHT22;13082;52.374;4.946;2023-03-31T10:37:54;11.80;99.90
25092;DHT22;13082;52.374;4.946;2023-03-31T10:40:25;11.80;99.90
25092;DHT22;13082;52.374;4.946;2023-03-31T10:43:14;11.80;99.90
25092;DHT22;13082;52.374;4.946;2023-03-31T10:45:52;11.80;99.90
25092;DHT22;13082;52.374;4.946;2023-03-31T10:48:32;11.90;99.90
25092;DHT22;13082;52.374;4.946;2023-03-31T10:51:36;11.90;99.90
25092;DHT22;13082;52.374;4.946;2023-03-31T10:54:01;12.00;99.90
25092;DHT22;13082;52.374;4.946;2023-03-31T10:56:40;12.00;99.90
25092;DHT22;13082;52.374;4.946;2023-03-31T10:59:38;12.00;99.90
25092;DHT22;13082;52.374;4.946;2023-03-31T11:02:36;12.00;99.90
25092;DHT22;13082;52.374;4.946;2023-03-31T11:10:58;11.90;99.90
25092;DHT22;13082;52.374;4.946;2023-03-31T11:21:41;11.70;99.90
25092;DHT22;13082;52.374;4.946;2023-03-31T11:30:09;11.70;99.90
25092;DHT22;13082;52.374;4.946;2023-03-31T11:41:12;11.70;99.90
25092;DHT22;13082;52.374;4.946;2023-03-31T11:43:47;11.70;99.90
25092;DHT22;13082;52.374;4.946;2023-03-31T11:46:25;11.70;99.90
25092;DHT22;13082;52.374;4.946;2023-03-31T11:48:56;11.70;99.90
25092;DHT22;13082;52.374;4.946;2023-03-31T11:51:56;11.80;99.90
25092;DHT22;13082;52.374;4.946;2023-03-31T11:54:34;11.80;99.90
25092;DHT22;13082;52.374;4.946;2023-03-31T11:57:15;11.80;99.90
25092;DHT22;13082;52.374;4.946;2023-03-31T11:59:43;11.80;99.90
25092;DHT22;13082;52.374;4.946;2023-03-31T12:02:18;11.70;99.90
25092;DHT22;13082;52.374;4.946;2023-03-31T12:04:51;11.70;99.90
25092;DHT22;13082;52.374;4.946;2023-03-31T12:07:35;11.70;99.90
25092;DHT22;13082;52.374;4.946;2023-03-31T12:16:21;11.70;99.90
25092;DHT22;13082;52.374;4.946;2023-03-31T12:21:31;11.60;99.90
25092;DHT22;13082;52.374;4.946;2023-03-31T12:23:57;11.60;99.90
25092;DHT22;13082;52.374;4.946;2023-03-31T12:29:28;11.70;99.90
25092;DHT22;13082;52.374;4.946;2023-03-31T12:31:57;11.70;99.90
25092;DHT22;13082;52.374;4.946;2023-03-31T12:34:25;11.60;99.90
25092;DHT22;13082;52.374;4.946;2023-03-31T12:37:02;11.60;99.90
25092;DHT22;13082;52.374;4.946;2023-03-31T12:52:58;11.40;99.90
25092;DHT22;13082;52.374;4.946;2023-03-31T12:55:36;11.40;99.90
25092;DHT22;13082;52.374;4.946;2023-03-31T12:58:35;11.40;99.90
25092;DHT22;13082;52.374;4.946;2023-03-31T13:03:48;11.40;99.90
25092;DHT22;13082;52.374;4.946;2023-03-31T13:09:08;11.30;99.90
25092;DHT22;13082;52.374;4.946;2023-03-31T13:11:51;11.30;99.90
25092;DHT22;13082;52.374;4.946;2023-03-31T13:14:27;11.30;99.90
25092;DHT22;13082;52.374;4.946;2023-03-31T13:19:39;11.40;99.90
25092;DHT22;13082;52.374;4.946;2023-03-31T13:22:05;11.30;99.90
25092;DHT22;13082;52.374;4.946;2023-03-31T13:24:33;11.40;99.90
25092;DHT22;13082;52.374;4.946;2023-03-31T13:34:09;11.30;99.90
25092;DHT22;13082;52.374;4.946;2023-03-31T13:44:15;11.20;99.90
25092;DHT22;13082;52.374;4.946;2023-03-31T13:46:57;11.20;99.90
25092;DHT22;13082;52.374;4.946;2023-03-31T13:49:37;11.20;99.90
25092;DHT22;13082;52.374;4.946;2023-03-31T13:52:10;11.20;99.90
25092;DHT22;13082;52.374;4.946;2023-03-31T14:05:35;11.50;99.90
25092;DHT22;13082;52.374;4.946;2023-03-31T14:08:22;11.60;99.90
25092;DHT22;13082;52.374;4.946;2023-03-31T14:10:49;11.60;99.90
25092;DHT22;13082;52.374;4.946;2023-03-31T14:13:17;11.60;99.90
25092;DHT22;13082;52.374;4.946;2023-03-31T14:15:55;11.70;99.90
25092;DHT22;13082;52.374;4.946;2023-03-31T14:18:25;11.70;99.90
25092;DHT22;13082;52.374;4.946;2023-03-31T14:21:28;11.70;99.90
25092;DHT22;13082;52.374;4.946;2023-03-31T14:26:50;11.80;99.90
25092;DHT22;13082;52.374;4.946;2023-03-31T14:29:47;11.90;99.90
25092;DHT22;13082;52.374;4.946;2023-03-31T14:37:51;11.90;99.90
25092;DHT22;13082;52.374;4.946;2023-03-31T14:40:18;11.90;99.90
25092;DHT22;13082;52.374;4.946;2023-03-31T14:42:44;11.80;99.90
25092;DHT22;13082;52.374;4.946;2023-03-31T14:45:25;11.80;99.90
25092;DHT22;13082;52.374;4.946;2023-03-31T14:48:10;11.80;99.90
25092;DHT22;13082;52.374;4.946;2023-03-31T14:50:41;11.70;99.90
25092;DHT22;13082;52.374;4.946;2023-03-31T14:53:15;11.70;99.90
25092;DHT22;13082;52.374;4.946;2023-03-31T14:55:42;11.70;99.90
25092;DHT22;13082;52.374;4.946;2023-03-31T14:58:12;11.70;99.90
25092;DHT22;13082;52.374;4.946;2023-03-31T15:00:39;11.70;99.90
25092;DHT22;13082;52.374;4.946;2023-03-31T15:03:08;11.80;99.90
25092;DHT22;13082;52.374;4.946;2023-03-31T15:05:39;11.80;99.90
25092;DHT22;13082;52.374;4.946;2023-03-31T15:08:21;11.80;99.90
25092;DHT22;13082;52.374;4.946;2023-03-31T15:10:56;11.80;99.90
25092;DHT22;13082;52.374;4.946;2023-03-31T15:13:44;11.70;99.90
25092;DHT22;13082;52.374;4.946;2023-03-31T15:16:36;11.60;99.90
25092;DHT22;13082;52.374;4.946;2023-03-31T15:19:19;11.50;99.90
25092;DHT22;13082;52.374;4.946;2023-03-31T15:21:47;11.40;99.90
25092;DHT22;13082;52.374;4.946;2023-03-31T15:24:18;11.30;99.90
25092;DHT22;13082;52.374;4.946;2023-03-31T15:26:56;11.30;99.90
25092;DHT22;13082;52.374;4.946;2023-03-31T15:29:41;11.20;99.90
25092;DHT22;13082;52.374;4.946;2023-03-31T15:32:15;11.20;99.90
25092;DHT22;13082;52.374;4.946;2023-03-31T15:34:42;11.10;99.90
25092;DHT22;13082;52.374;4.946;2023-03-31T15:37:10;11.20;99.90
25092;DHT22;13082;52.374;4.946;2023-03-31T15:39:37;11.30;99.90
25092;DHT22;13082;52.374;4.946;2023-03-31T15:42:05;11.30;99.90
25092;DHT22;13082;52.374;4.946;2023-03-31T15:44:35;11.30;99.90
25092;DHT22;13082;52.374;4.946;2023-03-31T15:47:19;11.30;99.90
25092;DHT22;13082;52.374;4.946;2023-03-31T15:49:52;11.40;99.90
25092;DHT22;13082;52.374;4.946;2023-03-31T15:52:30;11.30;99.90
25092;DHT22;13082;52.374;4.946;2023-03-31T15:54:58;11.40;99.90
25092;DHT22;13082;52.374;4.946;2023-03-31T15:57:31;11.30;99.90
25092;DHT22;13082;52.374;4.946;2023-03-31T15:59:57;11.30;99.90
25092;DHT22;13082;52.374;4.946;2023-03-31T16:02:33;11.40;99.90
25092;DHT22;13082;52.374;4.946;2023-03-31T16:05:01;11.30;99.90
25092;DHT22;13082;52.374;4.946;2023-03-31T16:07:33;11.20;99.90
25092;DHT22;13082;52.374;4.946;2023-03-31T16:10:03;11.20;99.90
25092;DHT22;13082;52.374;4.946;2023-03-31T16:12:40;11.20;99.90
25092;DHT22;13082;52.374;4.946;2023-03-31T16:15:11;11.20;99.90
25092;DHT22;13082;52.374;4.946;2023-03-31T16:20:34;11.30;99.90
25092;DHT22;13082;52.374;4.946;2023-03-31T16:23:25;11.30;99.90
25092;DHT22;13082;52.374;4.946;2023-03-31T16:25:52;11.30;99.90
25092;DHT22;13082;52.374;4.946;2023-03-31T16:28:27;11.20;99.90
25092;DHT22;13082;52.374;4.946;2023-03-31T16:30:53;11.20;99.90
25092;DHT22;13082;52.374;4.946;2023-03-31T16:33:21;11.20;99.90
25092;DHT22;13082;52.374;4.946;2023-03-31T16:35:52;11.20;99.90
25092;DHT22;13082;52.374;4.946;2023-03-31T16:38:22;11.20;99.90
25092;DHT22;13082;52.374;4.946;2023-03-31T16:40:50;11.20;99.90
25092;DHT22;13082;52.374;4.946;2023-03-31T16:43:22;11.20;99.90
25092;DHT22;13082;52.374;4.946;2023-03-31T16:45:51;11.20;99.90
25092;DHT22;13082;52.374;4.946;2023-03-31T16:48:18;11.20;99.90
25092;DHT22;13082;52.374;4.946;2023-03-31T16:50:45;11.20;99.90
25092;DHT22;13082;52.374;4.946;2023-03-31T16:53:15;11.20;99.90
25092;DHT22;13082;52.374;4.946;2023-03-31T16:55:41;11.20;99.90
25092;DHT22;13082;52.374;4.946;2023-03-31T16:58:07;11.20;99.90
25092;DHT22;13082;52.374;4.946;2023-03-31T17:00:33;11.20;99.90
25092;DHT22;13082;52.374;4.946;2023-03-31T17:03:01;11.20;99.90
25092;DHT22;13082;52.374;4.946;2023-03-31T17:05:27;11.10;99.90
25092;DHT22;13082;52.374;4.946;2023-03-31T17:07:56;11.10;99.90
25092;DHT22;13082;52.374;4.946;2023-03-31T17:10:22;11.10;99.90
25092;DHT22;13082;52.374;4.946;2023-03-31T17:12:48;11.10;99.90
25092;DHT22;13082;52.374;4.946;2023-03-31T17:15:13;11.20;99.90
25092;DHT22;13082;52.374;4.946;2023-03-31T17:17:39;11.10;99.90
25092;DHT22;13082;52.374;4.946;2023-03-31T17:20:06;11.10;99.90
25092;DHT22;13082;52.374;4.946;2023-03-31T17:22:33;11.10;99.90
25092;DHT22;13082;52.374;4.946;2023-03-31T17:24:58;11.10;99.90
25092;DHT22;13082;52.374;4.946;2023-03-31T17:27:25;11.10;99.90
25092;DHT22;13082;52.374;4.946;2023-03-31T17:29:51;11.10;99.90
25092;DHT22;13082;52.374;4.946;2023-03-31T17:32:17;11.10;99.90
25092;DHT22;13082;52.374;4.946;2023-03-31T17:34:43;11.10;99.90
25092;DHT22;13082;52.374;4.946;2023-03-31T17:37:09;11.10;99.90
25092;DHT22;13082;52.374;4.946;2023-03-31T17:39:35;11.10;99.90
25092;DHT22;13082;52.374;4.946;2023-03-31T17:42:01;11.10;99.90
25092;DHT22;13082;52.374;4.946;2023-03-31T17:44:28;11.10;99.90
25092;DHT22;13082;52.374;4.946;2023-03-31T17:46:54;11.00;99.90
25092;DHT22;13082;52.374;4.946;2023-03-31T17:49:19;11.00;99.90
25092;DHT22;13082;52.374;4.946;2023-03-31T17:51:45;11.00;99.90
25092;DHT22;13082;52.374;4.946;2023-03-31T17:54:11;11.10;99.90
25092;DHT22;13082;52.374;4.946;2023-03-31T17:56:37;11.00;99.90
25092;DHT22;13082;52.374;4.946;2023-03-31T17:59:03;11.10;99.90
25092;DHT22;13082;52.374;4.946;2023-03-31T18:01:29;11.00;99.90
25092;DHT22;13082;52.374;4.946;2023-03-31T18:03:55;11.00;99.90
25092;DHT22;13082;52.374;4.946;2023-03-31T18:06:22;11.10;99.90
25092;DHT22;13082;52.374;4.946;2023-03-31T18:08:47;11.00;99.90
25092;DHT22;13082;52.374;4.946;2023-03-31T18:11:13;11.00;99.90
25092;DHT22;13082;52.374;4.946;2023-03-31T18:13:40;11.00;99.90
25092;DHT22;13082;52.374;4.946;2023-03-31T18:16:07;11.00;99.90
25092;DHT22;13082;52.374;4.946;2023-03-31T18:18:35;11.00;99.90
25092;DHT22;13082;52.374;4.946;2023-03-31T18:21:05;11.00;99.90
25092;DHT22;13082;52.374;4.946;2023-03-31T18:23:32;11.00;99.90
25092;DHT22;13082;52.374;4.946;2023-03-31T18:25:58;10.90;99.90
25092;DHT22;13082;52.374;4.946;2023-03-31T18:28:24;10.90;99.90